sensor_id;sensor_type;location;lat;lon;timestamp;temperature;humidity
33881;DHT22;20172;47.530;10.256;2023-11-19T00:00:25;7.60;99.90
33881;DHT22;20172;47.530;10.256;2023-11-19T00:02:50;7.60;99.90
33881;DHT22;20172;47.530;10.256;2023-11-19T00:05:16;7.60;99.90
33881;DHT22;20172;47.530;10.256;2023-11-19T00:07:42;7.60;99.90
33881;DHT22;20172;47.530;10.256;2023-11-19T00:10:14;7.70;99.90
33881;DHT22;20172;47.530;10.256;2023-11-19T00:12:41;7.70;99.90
33881;DHT22;20172;47.530;10.256;2023-11-19T00:15:07;7.70;99.90
33881;DHT22;20172;47.530;10.256;2023-11-19T00:17:40;7.80;99.90
33881;DHT22;20172;47.530;10.256;2023-11-19T00:20:06;7.80;99.90
33881;DHT22;20172;47.530;10.256;2023-11-19T00:22:31;7.80;99.90
33881;DHT22;20172;47.530;10.256;2023-11-19T00:24:58;7.80;99.90
33881;DHT22;20172;47.530;10.256;2023-11-19T00:27:23;7.80;99.90
33881;DHT22;20172;47.530;10.256;2023-11-19T00:29:49;7.90;99.90
33881;DHT22;20172;47.530;10.256;2023-11-19T00:32:14;7.90;99.90
33881;DHT22;20172;47.530;10.256;2023-11-19T00:34:40;7.90;99.90
33881;DHT22;20172;47.530;10.256;2023-11-19T00:37:06;7.90;99.90
33881;DHT22;20172;47.530;10.256;2023-11-19T00:39:32;7.90;99.90
33881;DHT22;20172;47.530;10.256;2023-11-19T00:41:58;7.90;99.90
33881;DHT22;20172;47.530;10.256;2023-11-19T00:44:23;7.90;99.90
33881;DHT22;20172;47.530;10.256;2023-11-19T00:46:49;8.00;99.90
33881;DHT22;20172;47.530;10.256;2023-11-19T00:49:14;8.00;99.90
33881;DHT22;20172;47.530;10.256;2023-11-19T00:51:40;8.00;99.90
33881;DHT22;20172;47.530;10.256;2023-11-19T00:54:06;8.10;99.90
33881;DHT22;20172;47.530;10.256;2023-11-19T00:56:31;8.10;99.90
33881;DHT22;20172;47.530;10.256;2023-11-19T00:58:57;8.10;99.90
33881;DHT22;20172;47.530;10.256;2023-11-19T01:01:22;8.10;99.90
33881;DHT22;20172;47.530;10.256;2023-11-19T01:03:48;8.20;99.90
33881;DHT22;20172;47.530;10.256;2023-11-19T01:06:13;8.20;99.90
33881;DHT22;20172;47.530;10.256;2023-11-19T01:08:42;8.20;99.90
33881;DHT22;20172;47.530;10.256;2023-11-19T01:11:07;8.20;99.90
33881;DHT22;20172;47.530;10.256;2023-11-19T01:13:33;8.30;99.90
33881;DHT22;20172;47.530;10.256;2023-11-19T01:15:59;8.40;99.90
33881;DHT22;20172;47.530;10.256;2023-11-19T01:18:24;8.30;99.90
33881;DHT22;20172;47.530;10.256;2023-11-19T01:20:50;8.30;99.90
33881;DHT22;20172;47.530;10.256;2023-11-19T01:23:15;8.40;99.90
33881;DHT22;20172;47.530;10.256;2023-11-19T01:25:41;8.40;99.90
33881;DHT22;20172;47.530;10.256;2023-11-19T01:28:06;8.40;99.90
33881;DHT22;20172;47.530;10.256;2023-11-19T01:30:32;8.40;99.90
33881;DHT22;20172;47.530;10.256;2023-11-19T01:32:57;8.40;99.90
33881;DHT22;20172;47.530;10.256;2023-11-19T01:35:23;8.30;99.90
33881;DHT22;20172;47.530;10.256;2023-11-19T01:37:48;8.30;99.90
33881;DHT22;20172;47.530;10.256;2023-11-19T01:40:19;8.30;99.90
33881;DHT22;20172;47.530;10.256;2023-11-19T01:42:45;8.30;99.90
33881;DHT22;20172;47.530;10.256;2023-11-19T01:45:10;8.30;99.90
33881;DHT22;20172;47.530;10.256;2023-11-19T01:47:46;8.30;99.90
33881;DHT22;20172;47.530;10.256;2023-11-19T01:50:12;8.30;99.90
33881;DHT22;20172;47.530;10.256;2023-11-19T01:52:38;8.30;99.90
33881;DHT22;20172;47.530;10.256;2023-11-19T01:55:03;8.40;99.90
33881;DHT22;20172;47.530;10.256;2023-11-19T01:57:29;8.40;99.90
33881;DHT22;20172;47.530;10.256;2023-11-19T01:59:55;8.50;99.90
33881;DHT22;20172;47.530;10.256;2023-11-19T02:02:21;8.50;99.90
33881;DHT22;20172;47.530;10.256;2023-11-19T02:04:47;8.60;99.90
33881;DHT22;20172;47.530;10.256;2023-11-19T02:07:13;8.70;99.90
33881;DHT22;20172;47.530;10.256;2023-11-19T02:09:42;8.70;99.90
33881;DHT22;20172;47.530;10.256;2023-11-19T02:12:07;8.60;99.90
33881;DHT22;20172;47.530;10.256;2023-11-19T02:14:33;8.60;99.90
33881;DHT22;20172;47.530;10.256;2023-11-19T02:16:59;8.60;99.90
33881;DHT22;20172;47.530;10.256;2023-11-19T02:19:24;8.60;99.90
33881;DHT22;20172;47.530;10.256;2023-11-19T02:21:50;8.60;99.90
33881;DHT22;20172;47.530;10.256;2023-11-19T02:24:15;8.60;99.90
33881;DHT22;20172;47.530;10.256;2023-11-19T02:26:47;8.60;99.90
33881;DHT22;20172;47.530;10.256;2023-11-19T02:29:14;8.70;99.90
33881;DHT22;20172;47.530;10.256;2023-11-19T02:31:40;8.70;99.90
33881;DHT22;20172;47.530;10.256;2023-11-19T02:34:05;8.70;99.90
33881;DHT22;20172;47.530;10.256;2023-11-19T02:36:32;8.70;99.90
33881;DHT22;20172;47.530;10.256;2023-11-19T02:38:58;8.70;99.90
33881;DHT22;20172;47.530;10.256;2023-11-19T02:41:23;8.70;99.90
33881;DHT22;20172;47.530;10.256;2023-11-19T02:43:49;8.70;99.90
33881;DHT22;20172;47.530;10.256;2023-11-19T02:46:15;8.80;99.90
33881;DHT22;20172;47.530;10.256;2023-11-19T02:48:42;8.80;99.90
33881;DHT22;20172;47.530;10.256;2023-11-19T02:51:09;8.80;99.90
33881;DHT22;20172;47.530;10.256;2023-11-19T02:53:35;8.80;99.90
33881;DHT22;20172;47.530;10.256;2023-11-19T02:56:02;8.90;99.90
33881;DHT22;20172;47.530;10.256;2023-11-19T02:58:37;8.90;99.90
33881;DHT22;20172;47.530;10.256;2023-11-19T03:01:02;8.90;99.90
33881;DHT22;20172;47.530;10.256;2023-11-19T03:03:38;9.00;99.90
33881;DHT22;20172;47.530;10.256;2023-11-19T03:06:06;9.00;99.90
33881;DHT22;20172;47.530;10.256;2023-11-19T03:08:32;9.00;99.90
33881;DHT22;20172;47.530;10.256;2023-11-19T03:10:58;9.00;99.90
33881;DHT22;20172;47.530;10.256;2023-11-19T03:13:24;9.00;99.90
33881;DHT22;20172;47.530;10.256;2023-11-19T03:15:49;9.10;99.90
33881;DHT22;20172;47.530;10.256;2023-11-19T03:18:15;9.10;99.90
33881;DHT22;20172;47.530;10.256;2023-11-19T03:20:41;9.10;99.90
33881;DHT22;20172;47.530;10.256;2023-11-19T03:23:06;9.20;99.90
33881;DHT22;20172;47.530;10.256;2023-11-19T03:25:32;9.20;99.90
33881;DHT22;20172;47.530;10.256;2023-11-19T03:28:02;9.20;99.90
33881;DHT22;20172;47.530;10.256;2023-11-19T03:30:28;9.20;99.90
33881;DHT22;20172;47.530;10.256;2023-11-19T03:32:54;9.20;99.90
33881;DHT22;20172;47.530;10.256;2023-11-19T03:35:19;9.20;99.90
33881;DHT22;20172;47.530;10.256;2023-11-19T03:37:45;9.20;99.90
33881;DHT22;20172;47.530;10.256;2023-11-19T03:40:11;9.20;99.90
33881;DHT22;20172;47.530;10.256;2023-11-19T03:42:37;9.30;99.90
33881;DHT22;20172;47.530;10.256;2023-11-19T03:45:05;9.30;99.90
33881;DHT22;20172;47.530;10.256;2023-11-19T03:47:36;9.30;99.90
33881;DHT22;20172;47.530;10.256;2023-11-19T03:50:02;9.30;99.90
33881;DHT22;20172;47.530;10.256;2023-11-19T03:52:27;9.30;99.90
33881;DHT22;20172;47.530;10.256;2023-11-19T03:54:53;9.30;99.90
33881;DHT22;20172;47.530;10.256;2023-11-19T03:57:20;9.20;99.90
33881;DHT22;20172;47.530;10.256;2023-11-19T03:59:46;9.30;99.90
33881;DHT22;20172;47.530;10.256;2023-11-19T04:02:11;9.20;99.90
33881;DHT22;20172;47.530;10.256;2023-11-19T04:04:37;9.20;99.90
33881;DHT22;20172;47.530;10.256;2023-11-19T04:07:04;9.30;99.90
33881;DHT22;20172;47.530;10.256;2023-11-19T04:09:30;9.30;99.90
33881;DHT22;20172;47.530;10.256;2023-11-19T04:11:56;9.30;99.90
33881;DHT22;20172;47.530;10.256;2023-11-19T04:14:21;9.30;99.90
33881;DHT22;20172;47.530;10.256;2023-11-19T04:16:47;9.30;99.90
33881;DHT22;20172;47.530;10.256;2023-11-19T04:19:13;9.30;99.90
33881;DHT22;20172;47.530;10.256;2023-11-19T04:21:41;9.30;99.90
33881;DHT22;20172;47.530;10.256;2023-11-19T04:24:08;9.40;99.90
33881;DHT22;20172;47.530;10.256;2023-11-19T04:26:33;9.30;99.90
33881;DHT22;20172;47.530;10.256;2023-11-19T04:28:59;9.30;99.90
33881;DHT22;20172;47.530;10.256;2023-11-19T04:31:28;9.40;99.90
33881;DHT22;20172;47.530;10.256;2023-11-19T04:33:54;9.40;99.90
33881;DHT22;20172;47.530;10.256;2023-11-19T04:36:20;9.40;99.90
33881;DHT22;20172;47.530;10.256;2023-11-19T04:38:49;9.40;99.90
33881;DHT22;20172;47.530;10.256;2023-11-19T04:41:15;9.40;99.90
33881;DHT22;20172;47.530;10.256;2023-11-19T04:43:40;9.50;99.90
33881;DHT22;20172;47.530;10.256;2023-11-19T04:46:06;9.40;99.90
33881;DHT22;20172;47.530;10.256;2023-11-19T04:48:31;9.50;99.90
33881;DHT22;20172;47.530;10.256;2023-11-19T04:51:00;9.50;99.90
33881;DHT22;20172;47.530;10.256;2023-11-19T04:53:25;9.50;99.90
33881;DHT22;20172;47.530;10.256;2023-11-19T04:55:51;9.50;99.90
33881;DHT22;20172;47.530;10.256;2023-11-19T04:58:17;9.50;99.90
33881;DHT22;20172;47.530;10.256;2023-11-19T05:00:42;9.50;99.90
33881;DHT22;20172;47.530;10.256;2023-11-19T05:03:08;9.50;99.90
33881;DHT22;20172;47.530;10.256;2023-11-19T05:05:33;9.50;99.90
33881;DHT22;20172;47.530;10.256;2023-11-19T05:07:59;9.60;99.90
33881;DHT22;20172;47.530;10.256;2023-11-19T05:10:25;9.60;99.90
33881;DHT22;20172;47.530;10.256;2023-11-19T05:12:50;9.60;99.90
33881;DHT22;20172;47.530;10.256;2023-11-19T05:15:17;9.60;99.90
33881;DHT22;20172;47.530;10.256;2023-11-19T05:17:42;9.60;99.90
33881;DHT22;20172;47.530;10.256;2023-11-19T05:20:08;9.60;99.90
33881;DHT22;20172;47.530;10.256;2023-11-19T05:22:39;9.60;99.90
33881;DHT22;20172;47.530;10.256;2023-11-19T05:25:05;9.70;99.90
33881;DHT22;20172;47.530;10.256;2023-11-19T05:27:34;9.70;99.90
33881;DHT22;20172;47.530;10.256;2023-11-19T05:30:00;9.70;99.90
33881;DHT22;20172;47.530;10.256;2023-11-19T05:32:25;9.70;99.90
33881;DHT22;20172;47.530;10.256;2023-11-19T05:34:51;9.70;99.90
33881;DHT22;20172;47.530;10.256;2023-11-19T05:37:16;9.80;99.90
33881;DHT22;20172;47.530;10.256;2023-11-19T05:39:42;9.80;99.90
33881;DHT22;20172;47.530;10.256;2023-11-19T05:42:07;9.80;99.90
33881;DHT22;20172;47.530;10.256;2023-11-19T05:44:33;9.80;99.90
33881;DHT22;20172;47.530;10.256;2023-11-19T05:46:59;9.90;99.90
33881;DHT22;20172;47.530;10.256;2023-11-19T05:49:24;10.00;99.90
33881;DHT22;20172;47.530;10.256;2023-11-19T05:51:49;10.00;99.90
33881;DHT22;20172;47.530;10.256;2023-11-19T05:54:16;10.10;99.90
33881;DHT22;20172;47.530;10.256;2023-11-19T05:56:46;10.10;99.90
33881;DHT22;20172;47.530;10.256;2023-11-19T05:59:13;10.10;99.90
33881;DHT22;20172;47.530;10.256;2023-11-19T06:01:40;10.10;99.90
33881;DHT22;20172;47.530;10.256;2023-11-19T06:04:07;10.10;99.90
33881;DHT22;20172;47.530;10.256;2023-11-19T06:06:32;10.10;99.90
33881;DHT22;20172;47.530;10.256;2023-11-19T06:08:58;10.10;99.90
33881;DHT22;20172;47.530;10.256;2023-11-19T06:11:23;10.10;99.90
33881;DHT22;20172;47.530;10.256;2023-11-19T06:13:52;10.10;99.90
33881;DHT22;20172;47.530;10.256;2023-11-19T06:16:18;10.10;99.90
33881;DHT22;20172;47.530;10.256;2023-11-19T06:18:43;10.20;99.90
33881;DHT22;20172;47.530;10.256;2023-11-19T06:21:09;10.20;99.90
33881;DHT22;20172;47.530;10.256;2023-11-19T06:23:35;10.30;99.90
33881;DHT22;20172;47.530;10.256;2023-11-19T06:26:00;10.30;99.90
33881;DHT22;20172;47.530;10.256;2023-11-19T06:28:26;10.30;99.90
33881;DHT22;20172;47.530;10.256;2023-11-19T06:30:51;10.30;99.90
33881;DHT22;20172;47.530;10.256;2023-11-19T06:33:17;10.30;99.90
33881;DHT22;20172;47.530;10.256;2023-11-19T06:35:42;10.30;99.90
33881;DHT22;20172;47.530;10.256;2023-11-19T06:38:08;10.30;99.90
33881;DHT22;20172;47.530;10.256;2023-11-19T06:40:34;10.30;99.90
33881;DHT22;20172;47.530;10.256;2023-11-19T06:43:03;10.30;99.90
33881;DHT22;20172;47.530;10.256;2023-11-19T06:45:29;10.30;99.90
33881;DHT22;20172;47.530;10.256;2023-11-19T06:47:54;10.30;99.90
33881;DHT22;20172;47.530;10.256;2023-11-19T06:50:20;10.30;99.90
33881;DHT22;20172;47.530;10.256;2023-11-19T06:52:46;10.30;99.90
33881;DHT22;20172;47.530;10.256;2023-11-19T06:55:11;10.30;99.90
33881;DHT22;20172;47.530;10.256;2023-11-19T06:57:37;10.30;99.90
33881;DHT22;20172;47.530;10.256;2023-11-19T07:00:03;10.30;99.90
33881;DHT22;20172;47.530;10.256;2023-11-19T07:02:30;10.30;99.90
33881;DHT22;20172;47.530;10.256;2023-11-19T07:04:56;10.30;99.90
33881;DHT22;20172;47.530;10.256;2023-11-19T07:07:22;10.30;99.90
33881;DHT22;20172;47.530;10.256;2023-11-19T07:09:47;10.30;99.90
33881;DHT22;20172;47.530;10.256;2023-11-19T07:12:13;10.30;99.90
33881;DHT22;20172;47.530;10.256;2023-11-19T07:14:39;10.30;99.90
33881;DHT22;20172;47.530;10.256;2023-11-19T07:17:05;10.30;99.90
33881;DHT22;20172;47.530;10.256;2023-11-19T07:19:31;10.30;99.90
33881;DHT22;20172;47.530;10.256;2023-11-19T07:21:57;10.40;99.90
33881;DHT22;20172;47.530;10.256;2023-11-19T07:24:22;10.40;99.90
33881;DHT22;20172;47.530;10.256;2023-11-19T07:26:48;10.40;99.90
33881;DHT22;20172;47.530;10.256;2023-11-19T07:29:13;10.40;99.90
33881;DHT22;20172;47.530;10.256;2023-11-19T07:31:40;10.40;99.90
33881;DHT22;20172;47.530;10.256;2023-11-19T07:34:05;10.40;99.90
33881;DHT22;20172;47.530;10.256;2023-11-19T07:36:32;10.40;99.90
33881;DHT22;20172;47.530;10.256;2023-11-19T07:38:58;10.30;99.90
33881;DHT22;20172;47.530;10.256;2023-11-19T07:41:23;10.30;99.90
33881;DHT22;20172;47.530;10.256;2023-11-19T07:43:50;10.30;99.90
33881;DHT22;20172;47.530;10.256;2023-11-19T07:46:17;10.30;99.90
33881;DHT22;20172;47.530;10.256;2023-11-19T07:48:45;10.30;99.90
33881;DHT22;20172;47.530;10.256;2023-11-19T07:51:12;10.40;99.90
33881;DHT22;20172;47.530;10.256;2023-11-19T07:53:38;10.40;99.90
33881;DHT22;20172;47.530;10.256;2023-11-19T07:56:04;10.40;99.90
33881;DHT22;20172;47.530;10.256;2023-11-19T07:58:29;10.50;99.90
33881;DHT22;20172;47.530;10.256;2023-11-19T08:00:55;10.50;99.90
33881;DHT22;20172;47.530;10.256;2023-11-19T08:03:20;10.60;99.90
33881;DHT22;20172;47.530;10.256;2023-11-19T08:05:47;10.60;99.90
33881;DHT22;20172;47.530;10.256;2023-11-19T08:08:13;10.60;99.90
33881;DHT22;20172;47.530;10.256;2023-11-19T08:10:38;10.60;99.90
33881;DHT22;20172;47.530;10.256;2023-11-19T08:13:05;10.60;99.90
33881;DHT22;20172;47.530;10.256;2023-11-19T08:15:31;10.70;99.90
33881;DHT22;20172;47.530;10.256;2023-11-19T08:17:57;10.70;99.90
33881;DHT22;20172;47.530;10.256;2023-11-19T08:20:22;10.70;99.90
33881;DHT22;20172;47.530;10.256;2023-11-19T08:22:48;10.70;99.90
33881;DHT22;20172;47.530;10.256;2023-11-19T08:25:14;10.70;99.90
33881;DHT22;20172;47.530;10.256;2023-11-19T08:27:39;10.80;99.90
33881;DHT22;20172;47.530;10.256;2023-11-19T08:30:05;10.80;99.90
33881;DHT22;20172;47.530;10.256;2023-11-19T08:32:31;10.90;99.90
33881;DHT22;20172;47.530;10.256;2023-11-19T08:34:57;11.00;99.90
33881;DHT22;20172;47.530;10.256;2023-11-19T08:37:23;11.10;99.90
33881;DHT22;20172;47.530;10.256;2023-11-19T08:39:48;11.20;99.90
33881;DHT22;20172;47.530;10.256;2023-11-19T08:42:14;11.20;99.90
33881;DHT22;20172;47.530;10.256;2023-11-19T08:44:39;11.30;99.90
33881;DHT22;20172;47.530;10.256;2023-11-19T08:47:09;11.30;99.90
33881;DHT22;20172;47.530;10.256;2023-11-19T08:49:34;11.30;99.90
33881;DHT22;20172;47.530;10.256;2023-11-19T08:52:00;11.40;99.90
33881;DHT22;20172;47.530;10.256;2023-11-19T08:54:25;11.40;99.90
33881;DHT22;20172;47.530;10.256;2023-11-19T08:56:52;11.50;99.90
33881;DHT22;20172;47.530;10.256;2023-11-19T08:59:17;11.60;99.90
33881;DHT22;20172;47.530;10.256;2023-11-19T09:01:44;11.60;99.90
33881;DHT22;20172;47.530;10.256;2023-11-19T09:04:10;11.70;99.90
33881;DHT22;20172;47.530;10.256;2023-11-19T09:06:36;11.70;99.90
33881;DHT22;20172;47.530;10.256;2023-11-19T09:09:01;11.70;99.90
33881;DHT22;20172;47.530;10.256;2023-11-19T09:11:28;11.80;99.90
33881;DHT22;20172;47.530;10.256;2023-11-19T09:13:54;11.80;99.90
33881;DHT22;20172;47.530;10.256;2023-11-19T09:16:19;11.90;99.90
33881;DHT22;20172;47.530;10.256;2023-11-19T09:18:45;11.90;99.90
33881;DHT22;20172;47.530;10.256;2023-11-19T09:21:10;12.00;99.90
33881;DHT22;20172;47.530;10.256;2023-11-19T09:23:36;12.10;99.90
33881;DHT22;20172;47.530;10.256;2023-11-19T09:26:10;12.20;99.90
33881;DHT22;20172;47.530;10.256;2023-11-19T09:28:35;12.20;99.90
33881;DHT22;20172;47.530;10.256;2023-11-19T09:31:01;12.30;99.90
33881;DHT22;20172;47.530;10.256;2023-11-19T09:33:30;12.40;99.90
33881;DHT22;20172;47.530;10.256;2023-11-19T09:35:56;12.60;99.90
33881;DHT22;20172;47.530;10.256;2023-11-19T09:38:21;12.60;99.90
33881;DHT22;20172;47.530;10.256;2023-11-19T09:40:47;12.70;99.90
33881;DHT22;20172;47.530;10.256;2023-11-19T09:43:13;12.80;99.90
33881;DHT22;20172;47.530;10.256;2023-11-19T09:45:48;12.90;99.90
33881;DHT22;20172;47.530;10.256;2023-11-19T09:48:17;12.90;99.90
33881;DHT22;20172;47.530;10.256;2023-11-19T09:50:44;12.90;99.90
33881;DHT22;20172;47.530;10.256;2023-11-19T09:53:10;12.90;99.90
33881;DHT22;20172;47.530;10.256;2023-11-19T09:55:36;12.80;99.90
33881;DHT22;20172;47.530;10.256;2023-11-19T09:58:01;12.90;99.90
33881;DHT22;20172;47.530;10.256;2023-11-19T10:00:27;12.90;99.90
33881;DHT22;20172;47.530;10.256;2023-11-19T10:02:52;12.80;99.90
33881;DHT22;20172;47.530;10.256;2023-11-19T10:05:19;12.90;99.90
33881;DHT22;20172;47.530;10.256;2023-11-19T10:07:45;12.90;99.90
33881;DHT22;20172;47.530;10.256;2023-11-19T10:10:12;13.00;99.90
33881;DHT22;20172;47.530;10.256;2023-11-19T10:12:40;13.00;99.90
33881;DHT22;20172;47.530;10.256;2023-11-19T10:15:06;13.00;99.90
33881;DHT22;20172;47.530;10.256;2023-11-19T10:17:32;13.10;99.90
33881;DHT22;20172;47.530;10.256;2023-11-19T10:19:58;13.10;99.90
33881;DHT22;20172;47.530;10.256;2023-11-19T10:22:24;13.20;99.90
33881;DHT22;20172;47.530;10.256;2023-11-19T10:24:52;13.30;99.90
33881;DHT22;20172;47.530;10.256;2023-11-19T10:27:17;13.40;99.90
33881;DHT22;20172;47.530;10.256;2023-11-19T10:29:46;13.40;99.90
33881;DHT22;20172;47.530;10.256;2023-11-19T10:32:12;13.50;99.90
33881;DHT22;20172;47.530;10.256;2023-11-19T10:34:38;13.40;99.90
33881;DHT22;20172;47.530;10.256;2023-11-19T10:37:05;13.50;99.90
33881;DHT22;20172;47.530;10.256;2023-11-19T10:39:38;13.50;99.90
33881;DHT22;20172;47.530;10.256;2023-11-19T10:42:16;13.60;99.90
33881;DHT22;20172;47.530;10.256;2023-11-19T10:44:42;13.70;99.90
33881;DHT22;20172;47.530;10.256;2023-11-19T10:47:07;13.70;99.90
33881;DHT22;20172;47.530;10.256;2023-11-19T10:49:34;13.70;99.90
33881;DHT22;20172;47.530;10.256;2023-11-19T10:52:00;13.80;99.90
33881;DHT22;20172;47.530;10.256;2023-11-19T10:54:27;13.90;99.90
33881;DHT22;20172;47.530;10.256;2023-11-19T10:56:58;14.00;99.90
33881;DHT22;20172;47.530;10.256;2023-11-19T10:59:24;14.10;99.90
33881;DHT22;20172;47.530;10.256;2023-11-19T11:01:52;14.20;99.90
33881;DHT22;20172;47.530;10.256;2023-11-19T11:04:24;14.20;99.90
33881;DHT22;20172;47.530;10.256;2023-11-19T11:06:56;14.10;99.90
33881;DHT22;20172;47.530;10.256;2023-11-19T11:09:26;14.00;99.90
33881;DHT22;20172;47.530;10.256;2023-11-19T11:11:51;13.90;99.90
33881;DHT22;20172;47.530;10.256;2023-11-19T11:14:18;13.90;99.90
33881;DHT22;20172;47.530;10.256;2023-11-19T11:16:45;13.80;99.90
33881;DHT22;20172;47.530;10.256;2023-11-19T11:19:11;13.80;99.90
33881;DHT22;20172;47.530;10.256;2023-11-19T11:21:38;13.80;99.90
33881;DHT22;20172;47.530;10.256;2023-11-19T11:24:12;13.70;99.90
33881;DHT22;20172;47.530;10.256;2023-11-19T11:36:53;13.50;99.90
33881;DHT22;20172;47.530;10.256;2023-11-19T11:39:23;13.50;99.90
33881;DHT22;20172;47.530;10.256;2023-11-19T11:45:06;13.50;99.90
33881;DHT22;20172;47.530;10.256;2023-11-19T11:50:07;13.40;99.90
33881;DHT22;20172;47.530;10.256;2023-11-19T11:52:33;13.40;99.90
33881;DHT22;20172;47.530;10.256;2023-11-19T11:55:05;13.40;99.90
33881;DHT22;20172;47.530;10.256;2023-11-19T11:57:36;13.40;99.90
33881;DHT22;20172;47.530;10.256;2023-11-19T12:00:03;13.40;99.90
33881;DHT22;20172;47.530;10.256;2023-11-19T12:02:30;13.30;99.90
33881;DHT22;20172;47.530;10.256;2023-11-19T12:04:56;13.20;99.90
33881;DHT22;20172;47.530;10.256;2023-11-19T12:07:23;13.20;99.90
33881;DHT22;20172;47.530;10.256;2023-11-19T12:10:08;13.20;99.90
33881;DHT22;20172;47.530;10.256;2023-11-19T12:12:34;13.20;99.90
33881;DHT22;20172;47.530;10.256;2023-11-19T12:15:04;13.30;99.90
33881;DHT22;20172;47.530;10.256;2023-11-19T12:20:03;13.20;99.90
33881;DHT22;20172;47.530;10.256;2023-11-19T12:22:31;13.20;99.90
33881;DHT22;20172;47.530;10.256;2023-11-19T12:24:56;13.30;99.90
33881;DHT22;20172;47.530;10.256;2023-11-19T12:27:22;13.30;99.90
33881;DHT22;20172;47.530;10.256;2023-11-19T12:29:48;13.40;99.90
33881;DHT22;20172;47.530;10.256;2023-11-19T12:32:13;13.40;99.90
33881;DHT22;20172;47.530;10.256;2023-11-19T12:34:39;13.50;99.90
33881;DHT22;20172;47.530;10.256;2023-11-19T12:37:05;13.50;99.90
33881;DHT22;20172;47.530;10.256;2023-11-19T12:39:31;13.60;99.90
33881;DHT22;20172;47.530;10.256;2023-11-19T12:41:56;13.50;99.90
33881;DHT22;20172;47.530;10.256;2023-11-19T12:44:24;13.60;99.90
33881;DHT22;20172;47.530;10.256;2023-11-19T12:49:25;13.60;99.90
33881;DHT22;20172;47.530;10.256;2023-11-19T12:51:51;13.50;99.90
33881;DHT22;20172;47.530;10.256;2023-11-19T12:54:16;13.50;99.90
33881;DHT22;20172;47.530;10.256;2023-11-19T12:56:51;13.50;99.90
33881;DHT22;20172;47.530;10.256;2023-11-19T12:59:17;13.40;99.90
33881;DHT22;20172;47.530;10.256;2023-11-19T13:01:53;13.40;99.90
33881;DHT22;20172;47.530;10.256;2023-11-19T13:04:19;13.40;99.90
33881;DHT22;20172;47.530;10.256;2023-11-19T13:06:45;13.30;99.90
33881;DHT22;20172;47.530;10.256;2023-11-19T13:09:21;13.30;99.90
33881;DHT22;20172;47.530;10.256;2023-11-19T13:11:46;13.30;99.90
33881;DHT22;20172;47.530;10.256;2023-11-19T13:14:12;13.20;99.90
33881;DHT22;20172;47.530;10.256;2023-11-19T13:16:38;13.20;99.90
33881;DHT22;20172;47.530;10.256;2023-11-19T13:19:07;13.20;99.90
33881;DHT22;20172;47.530;10.256;2023-11-19T13:21:34;13.20;99.90
33881;DHT22;20172;47.530;10.256;2023-11-19T13:23:59;13.30;99.90
33881;DHT22;20172;47.530;10.256;2023-11-19T13:26:25;13.30;99.90
33881;DHT22;20172;47.530;10.256;2023-11-19T13:28:50;13.30;99.90
33881;DHT22;20172;47.530;10.256;2023-11-19T13:31:16;13.40;99.90
33881;DHT22;20172;47.530;10.256;2023-11-19T13:33:42;13.60;99.90
33881;DHT22;20172;47.530;10.256;2023-11-19T13:36:08;13.60;99.90
33881;DHT22;20172;47.530;10.256;2023-11-19T13:38:34;13.70;99.90
33881;DHT22;20172;47.530;10.256;2023-11-19T13:41:03;13.60;99.90
33881;DHT22;20172;47.530;10.256;2023-11-19T13:43:30;13.50;99.90
33881;DHT22;20172;47.530;10.256;2023-11-19T13:45:58;13.60;99.90
33881;DHT22;20172;47.530;10.256;2023-11-19T13:48:24;13.60;99.90
33881;DHT22;20172;47.530;10.256;2023-11-19T13:50:50;13.60;99.90
33881;DHT22;20172;47.530;10.256;2023-11-19T13:53:15;13.60;99.90
33881;DHT22;20172;47.530;10.256;2023-11-19T13:55:42;13.60;99.90
33881;DHT22;20172;47.530;10.256;2023-11-19T13:58:07;13.60;99.90
33881;DHT22;20172;47.530;10.256;2023-11-19T14:00:33;13.50;99.90
33881;DHT22;20172;47.530;10.256;2023-11-19T14:02:59;13.50;99.90
33881;DHT22;20172;47.530;10.256;2023-11-19T14:05:24;13.50;99.90
33881;DHT22;20172;47.530;10.256;2023-11-19T14:07:50;13.50;99.90
33881;DHT22;20172;47.530;10.256;2023-11-19T14:10:16;13.40;99.90
33881;DHT22;20172;47.530;10.256;2023-11-19T14:12:42;13.40;99.90
33881;DHT22;20172;47.530;10.256;2023-11-19T14:15:08;13.40;99.90
33881;DHT22;20172;47.530;10.256;2023-11-19T14:17:35;13.30;99.90
33881;DHT22;20172;47.530;10.256;2023-11-19T14:20:01;13.30;99.90
33881;DHT22;20172;47.530;10.256;2023-11-19T14:22:28;13.30;99.90
33881;DHT22;20172;47.530;10.256;2023-11-19T14:24:55;13.30;99.90
33881;DHT22;20172;47.530;10.256;2023-11-19T14:27:21;13.30;99.90
33881;DHT22;20172;47.530;10.256;2023-11-19T14:29:47;13.30;99.90
33881;DHT22;20172;47.530;10.256;2023-11-19T14:32:13;13.30;99.90
33881;DHT22;20172;47.530;10.256;2023-11-19T14:34:39;13.20;99.90
33881;DHT22;20172;47.530;10.256;2023-11-19T14:37:04;13.10;99.90
33881;DHT22;20172;47.530;10.256;2023-11-19T14:39:30;13.10;99.90
33881;DHT22;20172;47.530;10.256;2023-11-19T14:41:56;13.00;99.90
33881;DHT22;20172;47.530;10.256;2023-11-19T14:44:26;13.00;99.90
33881;DHT22;20172;47.530;10.256;2023-11-19T14:46:52;12.90;99.90
33881;DHT22;20172;47.530;10.256;2023-11-19T14:49:17;12.90;99.90
33881;DHT22;20172;47.530;10.256;2023-11-19T14:51:43;12.90;99.90
33881;DHT22;20172;47.530;10.256;2023-11-19T14:54:08;12.90;99.90
33881;DHT22;20172;47.530;10.256;2023-11-19T14:56:34;12.90;99.90
33881;DHT22;20172;47.530;10.256;2023-11-19T14:59:00;12.90;99.90
33881;DHT22;20172;47.530;10.256;2023-11-19T15:01:25;12.80;99.90
33881;DHT22;20172;47.530;10.256;2023-11-19T15:03:51;12.80;99.90
33881;DHT22;20172;47.530;10.256;2023-11-19T15:06:16;12.80;99.90
33881;DHT22;20172;47.530;10.256;2023-11-19T15:08:42;12.80;99.90
33881;DHT22;20172;47.530;10.256;2023-11-19T15:11:08;12.80;99.90
33881;DHT22;20172;47.530;10.256;2023-11-19T15:13:37;12.70;99.90
33881;DHT22;20172;47.530;10.256;2023-11-19T15:16:03;12.70;99.90
33881;DHT22;20172;47.530;10.256;2023-11-19T15:18:31;12.60;99.90
33881;DHT22;20172;47.530;10.256;2023-11-19T15:20:56;12.60;99.90
33881;DHT22;20172;47.530;10.256;2023-11-19T15:23:22;12.60;99.90
33881;DHT22;20172;47.530;10.256;2023-11-19T15:25:47;12.60;99.90
33881;DHT22;20172;47.530;10.256;2023-11-19T15:28:14;12.50;99.90
33881;DHT22;20172;47.530;10.256;2023-11-19T15:30:40;12.50;99.90
33881;DHT22;20172;47.530;10.256;2023-11-19T15:33:05;12.50;99.90
33881;DHT22;20172;47.530;10.256;2023-11-19T15:35:31;12.60;99.90
33881;DHT22;20172;47.530;10.256;2023-11-19T15:37:56;12.60;99.90